N70VB SWBR-SBEG
Flight info
| Callsign | N70VB |
|---|---|
| Flight time | 0h 35m |
| Altitude | 7000 |
| Route | 0408S05940W/N0218F080 |
| Aircraft | AEST/L-SDFGRY/S |
Departure
| Time | 2026-04-22 20:14 |
|---|---|
| Airport | Borba Airport (SWBR) |
Arrival
| Time | 2026-04-22 20:49 |
|---|---|
| Airport | Eduardo Gomes International Airport (SBEG) |
| Time | Latitude | Longitude | Altitude | Speed | Heading |
|---|---|---|---|---|---|
| 2026-04-22 20:00 | -4.40712 | -59.60853 | 295 ft | 0 kts | 351° |
| 2026-04-22 20:06 | -4.40705 | -59.60840 | 297 ft | 7 kts | 133° |
| 2026-04-22 20:07 | -4.40745 | -59.60847 | 296 ft | 6 kts | 197° |
| 2026-04-22 20:07 | -4.40750 | -59.60848 | 296 ft | 0 kts | 196° |
| 2026-04-22 20:11 | -4.40802 | -59.60818 | 297 ft | 19 kts | 100° |
| 2026-04-22 20:11 | -4.40811 | -59.60709 | 299 ft | 27 kts | 93° |
| 2026-04-22 20:11 | -4.40820 | -59.60540 | 300 ft | 23 kts | 93° |
| 2026-04-22 20:12 | -4.40833 | -59.60395 | 300 ft | 19 kts | 97° |
| 2026-04-22 20:12 | -4.40831 | -59.60336 | 300 ft | 0 kts | 347° |
| 2026-04-22 20:12 | -4.40831 | -59.60345 | 299 ft | 5 kts | 237° |
| 2026-04-22 20:12 | -4.40833 | -59.60354 | 299 ft | 0 kts | 274° |
| 2026-04-22 20:13 | -4.40829 | -59.60424 | 299 ft | 42 kts | 273° |
| 2026-04-22 20:13 | -4.40795 | -59.60953 | 314 ft | 97 kts | 272° |
| 2026-04-22 20:13 | -4.40762 | -59.61664 | 602 ft | 104 kts | 270° |
| 2026-04-22 20:14 | -4.40557 | -59.62408 | 868 ft | 125 kts | 307° |
| 2026-04-22 20:14 | -4.39817 | -59.62844 | 1280 ft | 130 kts | 343° |
| 2026-04-22 20:14 | -4.38899 | -59.63071 | 1635 ft | 139 kts | 345° |
| 2026-04-22 20:14 | -4.37963 | -59.63288 | 2080 ft | 136 kts | 346° |
| 2026-04-22 20:15 | -4.37041 | -59.63519 | 2430 ft | 137 kts | 343° |
| 2026-04-22 20:15 | -4.36129 | -59.63783 | 2764 ft | 136 kts | 342° |
| 2026-04-22 20:15 | -4.35221 | -59.64060 | 3080 ft | 136 kts | 341° |
| 2026-04-22 20:15 | -4.34326 | -59.64337 | 3388 ft | 136 kts | 341° |
| 2026-04-22 20:16 | -4.33419 | -59.64622 | 3694 ft | 136 kts | 341° |
| 2026-04-22 20:16 | -4.32518 | -59.64904 | 3981 ft | 136 kts | 341° |
| 2026-04-22 20:16 | -4.31618 | -59.65186 | 4262 ft | 136 kts | 341° |
| 2026-04-22 20:16 | -4.30719 | -59.65468 | 4549 ft | 135 kts | 341° |
| 2026-04-22 20:17 | -4.29823 | -59.65748 | 4821 ft | 134 kts | 341° |
| 2026-04-22 20:17 | -4.28930 | -59.66028 | 5084 ft | 134 kts | 341° |
| 2026-04-22 20:17 | -4.28043 | -59.66306 | 5331 ft | 133 kts | 341° |
| 2026-04-22 20:17 | -4.27157 | -59.66583 | 5575 ft | 133 kts | 342° |
| 2026-04-22 20:18 | -4.26280 | -59.66858 | 5820 ft | 132 kts | 341° |
| 2026-04-22 20:18 | -4.25406 | -59.67132 | 6049 ft | 131 kts | 342° |
| 2026-04-22 20:18 | -4.24539 | -59.67403 | 6274 ft | 130 kts | 342° |
| 2026-04-22 20:18 | -4.23676 | -59.67673 | 6481 ft | 129 kts | 342° |
| 2026-04-22 20:19 | -4.22830 | -59.67939 | 6676 ft | 128 kts | 342° |
| 2026-04-22 20:19 | -4.21980 | -59.68206 | 6871 ft | 127 kts | 342° |
| 2026-04-22 20:19 | -4.21135 | -59.68470 | 7058 ft | 127 kts | 342° |
| 2026-04-22 20:19 | -4.20297 | -59.68733 | 7233 ft | 126 kts | 342° |
| 2026-04-22 20:20 | -4.19463 | -59.68994 | 7408 ft | 125 kts | 342° |
| 2026-04-22 20:20 | -4.18632 | -59.69253 | 7572 ft | 125 kts | 342° |
| 2026-04-22 20:20 | -4.17805 | -59.69512 | 7737 ft | 124 kts | 343° |
| 2026-04-22 20:20 | -4.16984 | -59.69769 | 7893 ft | 123 kts | 342° |
| 2026-04-22 20:21 | -4.16167 | -59.70025 | 8047 ft | 123 kts | 343° |
| 2026-04-22 20:21 | -4.15355 | -59.70286 | 8194 ft | 122 kts | 336° |
| 2026-04-22 20:21 | -4.14598 | -59.70684 | 8281 ft | 128 kts | 331° |
| 2026-04-22 20:21 | -4.13753 | -59.71139 | 8227 ft | 147 kts | 332° |
| 2026-04-22 20:22 | -4.12809 | -59.71633 | 8217 ft | 162 kts | 333° |
| 2026-04-22 20:22 | -4.11772 | -59.72171 | 8217 ft | 172 kts | 333° |
| 2026-04-22 20:22 | -4.10680 | -59.72738 | 8217 ft | 181 kts | 333° |
| 2026-04-22 20:22 | -4.09542 | -59.73328 | 8216 ft | 187 kts | 333° |
| 2026-04-22 20:23 | -4.08369 | -59.73936 | 8214 ft | 192 kts | 333° |
| 2026-04-22 20:23 | -4.07169 | -59.74558 | 8213 ft | 196 kts | 333° |
| 2026-04-22 20:23 | -4.05950 | -59.75189 | 8214 ft | 198 kts | 333° |
| 2026-04-22 20:23 | -4.04719 | -59.75829 | 8215 ft | 200 kts | 332° |
| 2026-04-22 20:24 | -4.03476 | -59.76473 | 8214 ft | 202 kts | 333° |
| 2026-04-22 20:24 | -4.02241 | -59.77114 | 8213 ft | 203 kts | 333° |
| 2026-04-22 20:24 | -4.00981 | -59.77766 | 8213 ft | 204 kts | 333° |
| 2026-04-22 20:24 | -3.99719 | -59.78419 | 8213 ft | 204 kts | 333° |
| 2026-04-22 20:25 | -3.98455 | -59.79073 | 8210 ft | 205 kts | 333° |
| 2026-04-22 20:25 | -3.97192 | -59.79729 | 8212 ft | 205 kts | 333° |
| 2026-04-22 20:25 | -3.95920 | -59.80385 | 8213 ft | 205 kts | 333° |
| 2026-04-22 20:25 | -3.94649 | -59.81045 | 8212 ft | 205 kts | 332° |
| 2026-04-22 20:26 | -3.93380 | -59.81706 | 8211 ft | 206 kts | 333° |
| 2026-04-22 20:26 | -3.92109 | -59.82365 | 8215 ft | 206 kts | 333° |
| 2026-04-22 20:26 | -3.90834 | -59.83023 | 8213 ft | 206 kts | 333° |
| 2026-04-22 20:26 | -3.89560 | -59.83680 | 8216 ft | 206 kts | 333° |
| 2026-04-22 20:27 | -3.88289 | -59.84344 | 8213 ft | 206 kts | 332° |
| 2026-04-22 20:27 | -3.87032 | -59.84998 | 8212 ft | 206 kts | 333° |
| 2026-04-22 20:27 | -3.85754 | -59.85652 | 8214 ft | 206 kts | 333° |
| 2026-04-22 20:27 | -3.84481 | -59.86315 | 8214 ft | 206 kts | 333° |
| 2026-04-22 20:28 | -3.83208 | -59.86978 | 8214 ft | 206 kts | 333° |
| 2026-04-22 20:28 | -3.81933 | -59.87635 | 8213 ft | 206 kts | 333° |
| 2026-04-22 20:28 | -3.80657 | -59.88297 | 8215 ft | 206 kts | 333° |
| 2026-04-22 20:28 | -3.79398 | -59.88951 | 8215 ft | 206 kts | 333° |
| 2026-04-22 20:29 | -3.78122 | -59.89611 | 8214 ft | 206 kts | 333° |
| 2026-04-22 20:29 | -3.76847 | -59.90268 | 8215 ft | 206 kts | 333° |
| 2026-04-22 20:29 | -3.75572 | -59.90931 | 8215 ft | 206 kts | 333° |
| 2026-04-22 20:29 | -3.74298 | -59.91589 | 8214 ft | 206 kts | 333° |
| 2026-04-22 20:30 | -3.73022 | -59.92253 | 8215 ft | 206 kts | 333° |
| 2026-04-22 20:30 | -3.71745 | -59.92915 | 8216 ft | 206 kts | 333° |
| 2026-04-22 20:30 | -3.70468 | -59.93569 | 8216 ft | 206 kts | 333° |
| 2026-04-22 20:30 | -3.69191 | -59.94229 | 8219 ft | 206 kts | 333° |
| 2026-04-22 20:31 | -3.67932 | -59.94887 | 8215 ft | 206 kts | 333° |
| 2026-04-22 20:31 | -3.66656 | -59.95550 | 8216 ft | 206 kts | 333° |
| 2026-04-22 20:31 | -3.65376 | -59.96210 | 8217 ft | 206 kts | 333° |
| 2026-04-22 20:31 | -3.64099 | -59.96871 | 8216 ft | 207 kts | 333° |
| 2026-04-22 20:32 | -3.62821 | -59.97537 | 8217 ft | 207 kts | 332° |
| 2026-04-22 20:32 | -3.61540 | -59.98196 | 8215 ft | 207 kts | 333° |
| 2026-04-22 20:32 | -3.60258 | -59.98858 | 8215 ft | 207 kts | 333° |
| 2026-04-22 20:32 | -3.58996 | -59.99511 | 8210 ft | 207 kts | 333° |
| 2026-04-22 20:33 | -3.57719 | -60.00174 | 8215 ft | 207 kts | 333° |
| 2026-04-22 20:33 | -3.56441 | -60.00840 | 8213 ft | 207 kts | 333° |
| 2026-04-22 20:33 | -3.55163 | -60.01503 | 8214 ft | 207 kts | 333° |
| 2026-04-22 20:33 | -3.53882 | -60.02159 | 8216 ft | 206 kts | 333° |
| 2026-04-22 20:34 | -3.52604 | -60.02818 | 8217 ft | 207 kts | 333° |
| 2026-04-22 20:34 | -3.51330 | -60.03481 | 8216 ft | 206 kts | 333° |
| 2026-04-22 20:34 | -3.50069 | -60.04136 | 8216 ft | 206 kts | 332° |
| 2026-04-22 20:34 | -3.48791 | -60.04794 | 8218 ft | 206 kts | 332° |
| 2026-04-22 20:35 | -3.47514 | -60.05456 | 8218 ft | 206 kts | 333° |
| 2026-04-22 20:35 | -3.46237 | -60.06119 | 8220 ft | 207 kts | 333° |
| 2026-04-22 20:35 | -3.44960 | -60.06778 | 8221 ft | 207 kts | 333° |
| 2026-04-22 20:35 | -3.43682 | -60.07441 | 8222 ft | 207 kts | 332° |
| 2026-04-22 20:36 | -3.42417 | -60.08095 | 8221 ft | 207 kts | 333° |
| 2026-04-22 20:36 | -3.41138 | -60.08754 | 8194 ft | 208 kts | 333° |
| 2026-04-22 20:36 | -3.39794 | -60.09447 | 7865 ft | 224 kts | 332° |
| 2026-04-22 20:36 | -3.38403 | -60.10172 | 7707 ft | 226 kts | 332° |
| 2026-04-22 20:37 | -3.36991 | -60.10904 | 7471 ft | 232 kts | 332° |
| 2026-04-22 20:37 | -3.35584 | -60.11630 | 7185 ft | 222 kts | 332° |
| 2026-04-22 20:37 | -3.34208 | -60.12337 | 6805 ft | 223 kts | 332° |
| 2026-04-22 20:37 | -3.32824 | -60.13054 | 6426 ft | 224 kts | 332° |
| 2026-04-22 20:38 | -3.31445 | -60.13772 | 6084 ft | 223 kts | 332° |
| 2026-04-22 20:38 | -3.30077 | -60.14478 | 5771 ft | 219 kts | 332° |
| 2026-04-22 20:38 | -3.28726 | -60.15176 | 5477 ft | 217 kts | 332° |
| 2026-04-22 20:38 | -3.27390 | -60.15866 | 5203 ft | 214 kts | 332° |
| 2026-04-22 20:39 | -3.26075 | -60.16547 | 4950 ft | 211 kts | 332° |
| 2026-04-22 20:39 | -3.24781 | -60.17217 | 4724 ft | 208 kts | 332° |
| 2026-04-22 20:39 | -3.23517 | -60.17872 | 4500 ft | 206 kts | 332° |
| 2026-04-22 20:39 | -3.22250 | -60.18528 | 4264 ft | 204 kts | 332° |
| 2026-04-22 20:40 | -3.20985 | -60.19180 | 4047 ft | 203 kts | 332° |
| 2026-04-22 20:40 | -3.19742 | -60.19825 | 3951 ft | 196 kts | 332° |
| 2026-04-22 20:40 | -3.18534 | -60.20453 | 3968 ft | 195 kts | 332° |
| 2026-04-22 20:40 | -3.17326 | -60.21075 | 3979 ft | 195 kts | 332° |
| 2026-04-22 20:41 | -3.16119 | -60.21701 | 3973 ft | 195 kts | 332° |
| 2026-04-22 20:41 | -3.14912 | -60.22322 | 3978 ft | 195 kts | 332° |
| 2026-04-22 20:41 | -3.13710 | -60.22954 | 3980 ft | 195 kts | 329° |
| 2026-04-22 20:41 | -3.12510 | -60.23596 | 3976 ft | 196 kts | 335° |
| 2026-04-22 20:42 | -3.11256 | -60.24124 | 3977 ft | 196 kts | 338° |
| 2026-04-22 20:42 | -3.09957 | -60.24573 | 3892 ft | 200 kts | 342° |
| 2026-04-22 20:42 | -3.08584 | -60.24945 | 3675 ft | 208 kts | 346° |
| 2026-04-22 20:42 | -3.07165 | -60.25224 | 3450 ft | 214 kts | 351° |
| 2026-04-22 20:43 | -3.05658 | -60.25402 | 3175 ft | 220 kts | 354° |
| 2026-04-22 20:43 | -3.04120 | -60.25297 | 2875 ft | 224 kts | 17° |
| 2026-04-22 20:43 | -3.02850 | -60.24494 | 2934 ft | 213 kts | 47° |
| 2026-04-22 20:43 | -3.02153 | -60.23234 | 2974 ft | 206 kts | 76° |
| 2026-04-22 20:44 | -3.02022 | -60.21890 | 2908 ft | 183 kts | 79° |
| 2026-04-22 20:44 | -3.01703 | -60.20702 | 2640 ft | 171 kts | 87° |
| 2026-04-22 20:44 | -3.01997 | -60.19598 | 2326 ft | 163 kts | 124° |
| 2026-04-22 20:44 | -3.02737 | -60.18772 | 2047 ft | 156 kts | 135° |
| 2026-04-22 20:45 | -3.03476 | -60.18002 | 1800 ft | 148 kts | 133° |
| 2026-04-22 20:45 | -3.03828 | -60.17164 | 1840 ft | 119 kts | 94° |
| 2026-04-22 20:45 | -3.03831 | -60.16406 | 1884 ft | 106 kts | 91° |
| 2026-04-22 20:45 | -3.03836 | -60.15645 | 1958 ft | 113 kts | 91° |
| 2026-04-22 20:46 | -3.03840 | -60.14068 | 1837 ft | 107 kts | 90° |
| 2026-04-22 20:46 | -3.03841 | -60.13347 | 1676 ft | 99 kts | 90° |
| 2026-04-22 20:46 | -3.03843 | -60.12606 | 1600 ft | 116 kts | 90° |
| 2026-04-22 20:47 | -3.03845 | -60.11755 | 1400 ft | 125 kts | 90° |
| 2026-04-22 20:47 | -3.03847 | -60.10901 | 1239 ft | 124 kts | 90° |
| 2026-04-22 20:47 | -3.03847 | -60.10039 | 1074 ft | 123 kts | 90° |
| 2026-04-22 20:47 | -3.03848 | -60.09215 | 895 ft | 112 kts | 91° |
| 2026-04-22 20:48 | -3.03841 | -60.08446 | 817 ft | 114 kts | 91° |
| 2026-04-22 20:48 | -3.03848 | -60.07605 | 611 ft | 125 kts | 92° |
| 2026-04-22 20:48 | -3.03849 | -60.06778 | 422 ft | 116 kts | 91° |
| 2026-04-22 20:48 | -3.03852 | -60.06004 | 277 ft | 104 kts | 92° |
| 2026-04-22 20:49 | -3.03859 | -60.05436 | 259 ft | 62 kts | 90° |
| 2026-04-22 20:49 | -3.03859 | -60.05073 | 261 ft | 44 kts | 91° |
| 2026-04-22 20:49 | -3.03859 | -60.04803 | 262 ft | 35 kts | 89° |
| 2026-04-22 20:49 | -3.03860 | -60.04565 | 264 ft | 34 kts | 91° |
| 2026-04-22 20:50 | -3.03861 | -60.04325 | 265 ft | 35 kts | 89° |
| 2026-04-22 20:50 | -3.03861 | -60.04081 | 266 ft | 35 kts | 90° |
| 2026-04-22 20:50 | -3.03858 | -60.03852 | 266 ft | 28 kts | 87° |
| 2026-04-22 20:50 | -3.03735 | -60.03780 | 267 ft | 23 kts | 333° |
| 2026-04-22 20:51 | -3.03667 | -60.03914 | 266 ft | 23 kts | 285° |
| 2026-04-22 20:51 | -3.03623 | -60.04074 | 266 ft | 25 kts | 287° |
| 2026-04-22 20:51 | -3.03566 | -60.04239 | 265 ft | 26 kts | 299° |
| 2026-04-22 20:51 | -3.03437 | -60.04359 | 264 ft | 25 kts | 340° |
| 2026-04-22 20:52 | -3.03306 | -60.04356 | 264 ft | 19 kts | 68° |
| 2026-04-22 20:52 | -3.03265 | -60.04204 | 265 ft | 27 kts | 75° |
| 2026-04-22 20:52 | -3.03220 | -60.04034 | 266 ft | 24 kts | 76° |
| 2026-04-22 20:52 | -3.03255 | -60.03931 | 266 ft | 11 kts | 163° |
| 2026-04-22 20:53 | -3.03267 | -60.03927 | 266 ft | 0 kts | 166° |